Time;durP1;ratioP1;P1;durP2;ratioP2;P2;SDS_P1;SDS_P2;PMS_P1;PMS_P2;Temp;Humidity;BMP_temperature;BMP_pressure;BME280_temperature;BME280_humidity;BME280_pressure;Samples;Min_cycle;Max_cycle;Signal;HPM_P1;HPM_P2
2020/12/19 00:04:14;;;;;;;74.97;33.83;;;;;;;-1.07;100.00;100214.02;4296054;82;44130;-77
2020/12/19 00:10:16;;;;;;;86.97;37.60;;;;;;;-1.17;100.00;100206.86;4331988;81;44435;-79
2020/12/19 00:16:18;;;;;;;85.85;35.45;;;;;;;-1.13;100.00;100216.19;4307951;81;44255;-78
2020/12/19 00:22:21;;;;;;;80.28;34.83;;;;;;;-1.25;100.00;100218.52;4304071;80;43036;-79
2020/12/19 00:28:23;;;;;;;87.25;37.58;;;;;;;-1.22;100.00;100224.85;4322873;81;44460;-79
2020/12/19 00:34:25;;;;;;;94.87;38.42;;;;;;;-1.27;100.00;100225.73;4322008;80;44476;-78
2020/12/19 00:40:27;;;;;;;87.70;38.60;;;;;;;-1.12;100.00;100227.59;4290844;81;44448;-78
2020/12/19 00:46:29;;;;;;;91.37;38.23;;;;;;;-1.34;100.00;100231.13;4330571;80;44427;-80
2020/12/19 00:52:32;;;;;;;88.30;38.20;;;;;;;-1.10;100.00;100239.33;4318998;80;44452;-79
2020/12/19 00:58:34;;;;;;;89.90;37.50;;;;;;;-1.06;100.00;100237.63;4317735;81;44452;-79
2020/12/19 01:04:36;;;;;;;73.52;30.77;;;;;;;-1.26;100.00;100234.81;4318106;81;44121;-78
2020/12/19 01:10:38;;;;;;;83.35;34.13;;;;;;;-0.96;100.00;100222.36;4321601;81;43467;-80
2020/12/19 01:16:41;;;;;;;76.87;34.25;;;;;;;-1.09;100.00;100223.37;4320022;80;42405;-79
2020/12/19 01:22:43;;;;;;;79.20;34.48;;;;;;;-1.07;100.00;100217.48;4311984;80;43090;-80
2020/12/19 01:28:46;;;;;;;79.42;32.33;;;;;;;-1.11;100.00;100212.11;4302634;80;43052;-80
2020/12/19 01:34:49;;;;;;;84.60;33.58;;;;;;;-0.96;100.00;100226.31;4323767;81;43092;-79
2020/12/19 01:40:54;;;;;;;79.03;33.02;;;;;;;-0.85;100.00;100226.27;4341016;81;43006;-80
2020/12/19 01:46:59;;;;;;;76.33;32.73;;;;;;;-1.10;100.00;100213.78;4357512;81;28604;-80
2020/12/19 01:53:01;;;;;;;80.22;31.62;;;;;;;-0.94;100.00;100216.46;4330235;81;28552;-80
2020/12/19 01:59:03;;;;;;;77.70;31.35;;;;;;;-0.92;100.00;100201.36;4320931;80;43584;-80
2020/12/19 02:05:05;;;;;;;80.17;34.15;;;;;;;-0.92;100.00;100198.72;4334365;81;43063;-80
2020/12/19 02:11:07;;;;;;;80.57;33.58;;;;;;;-0.79;100.00;100180.88;4322103;81;43099;-81
2020/12/19 02:17:14;;;;;;;78.70;31.87;;;;;;;-0.77;100.00;100171.01;4313653;81;42954;-80
2020/12/19 02:23:21;;;;;;;78.90;31.80;;;;;;;-0.82;100.00;100165.30;4312672;81;43112;-80
2020/12/19 02:29:24;;;;;;;81.82;33.67;;;;;;;-0.90;100.00;100166.41;4351215;81;28541;-80
2020/12/19 02:35:27;;;;;;;70.47;27.73;;;;;;;-0.95;100.00;100152.27;4335618;81;44115;-80
2020/12/19 02:41:29;;;;;;;79.80;31.42;;;;;;;-0.99;100.00;100152.16;4348218;81;42670;-79
2020/12/19 02:47:31;;;;;;;80.95;31.12;;;;;;;-0.92;100.00;100154.65;4340437;81;43051;-80
2020/12/19 02:53:33;;;;;;;78.55;32.65;;;;;;;-0.98;100.00;100145.94;4170639;85;42172;-79
2020/12/19 02:59:35;;;;;;;73.40;29.45;;;;;;;-1.01;100.00;100149.67;4295765;80;44098;-79
2020/12/19 03:05:37;;;;;;;75.25;29.82;;;;;;;-0.95;100.00;100131.63;4295741;82;43672;-80
2020/12/19 03:11:39;;;;;;;72.90;29.63;;;;;;;-1.17;100.00;100123.72;4294177;82;44078;-80
2020/12/19 03:17:42;;;;;;;73.05;29.82;;;;;;;-1.05;100.00;100134.22;4293294;80;44176;-79
2020/12/19 03:23:44;;;;;;;74.32;29.10;;;;;;;-1.02;100.00;100131.31;4294926;82;44165;-79
2020/12/19 03:29:46;;;;;;;69.97;27.98;;;;;;;-1.09;100.00;100122.22;4303020;80;44127;-80
2020/12/19 03:35:48;;;;;;;95.10;31.37;;;;;;;-0.97;100.00;100125.17;4327139;82;44146;-79
2020/12/19 03:41:50;;;;;;;58.17;24.75;;;;;;;-1.26;100.00;100132.40;4305398;82;44077;-80
2020/12/19 03:47:52;;;;;;;64.85;26.60;;;;;;;-1.12;100.00;100101.72;4288345;81;43661;-79
2020/12/19 03:53:55;;;;;;;61.75;25.52;;;;;;;-1.25;100.00;100094.48;4348128;81;43203;-78
2020/12/19 03:59:57;;;;;;;64.42;26.25;;;;;;;-1.03;100.00;100083.44;4332691;80;42904;-79
2020/12/19 04:05:59;;;;;;;66.92;27.20;;;;;;;-1.16;100.00;100080.98;4196308;84;43763;-79
2020/12/19 04:12:01;;;;;;;62.00;25.12;;;;;;;-0.97;100.00;100079.44;4250999;84;43356;-79
2020/12/19 04:18:03;;;;;;;64.42;26.35;;;;;;;-1.13;100.00;100079.44;4287814;83;43043;-79
2020/12/19 04:24:05;;;;;;;60.45;24.55;;;;;;;-1.12;100.00;100066.09;4241727;83;43543;-79
2020/12/19 04:30:09;;;;;;;55.73;25.57;;;;;;;-1.37;100.00;100071.77;4227157;83;43299;-78
2020/12/19 04:36:11;;;;;;;53.33;23.60;;;;;;;-1.38;100.00;100071.42;4225359;83;44103;-79
2020/12/19 04:42:14;;;;;;;55.75;22.25;;;;;;;-1.38;100.00;100072.73;4223490;83;44108;-79
2020/12/19 04:48:19;;;;;;;52.48;22.52;;;;;;;-1.27;100.00;100066.89;4249795;82;44135;-78
2020/12/19 04:54:22;;;;;;;54.90;22.27;;;;;;;-1.50;100.00;100066.67;4243193;82;28624;-79
2020/12/19 05:00:24;;;;;;;63.38;24.10;;;;;;;-1.32;100.00;100066.92;4263605;82;43760;-80
2020/12/19 05:06:28;;;;;;;53.55;23.07;;;;;;;-1.33;100.00;100072.70;4255129;82;44145;-80
2020/12/19 05:12:32;;;;;;;48.67;22.00;;;;;;;-1.33;100.00;100081.09;4258397;82;28593;-80
2020/12/19 05:18:36;;;;;;;49.38;21.45;;;;;;;-1.33;100.00;100071.85;4288551;82;44509;-79
2020/12/19 05:24:40;;;;;;;47.70;19.37;;;;;;;-1.50;100.00;100075.91;4251135;82;43740;-80
2020/12/19 05:30:46;;;;;;;47.50;20.17;;;;;;;-1.53;100.00;100082.26;4274302;82;43829;-80
2020/12/19 05:36:50;;;;;;;48.95;21.93;;;;;;;-1.62;100.00;100081.23;4254152;82;44117;-79
2020/12/19 05:42:52;;;;;;;60.60;23.30;;;;;;;-1.62;100.00;100081.23;4249287;82;44079;-78
2020/12/19 05:48:56;;;;;;;47.80;20.48;;;;;;;-1.53;100.00;100080.94;4229155;82;43732;-79
2020/12/19 05:55:00;;;;;;;48.52;20.10;;;;;;;-1.52;100.00;100083.93;4220073;82;43780;-79
2020/12/19 06:01:04;;;;;;;54.48;21.25;;;;;;;-1.63;100.00;100094.06;4249960;82;44079;-79
2020/12/19 06:07:09;;;;;;;48.85;21.85;;;;;;;-1.49;100.00;100086.34;4299030;81;44483;-79
2020/12/19 06:13:18;;;;;;;39.08;15.90;;;;;;;-1.57;100.00;100082.17;4341183;81;28567;-79
2020/12/19 06:19:23;;;;;;;49.23;20.75;;;;;;;-1.68;100.00;100089.62;4329704;81;44527;-78
2020/12/19 06:25:46;;;;;;;48.40;20.80;;;;;;;-1.67;100.00;100099.21;4328746;80;28595;-78
2020/12/19 06:32:00;;;;;;;47.78;20.08;;;;;;;-1.48;100.00;100111.75;4193896;84;43738;-80
2020/12/19 06:38:03;;;;;;;49.98;22.22;;;;;;;-1.58;100.00;100114.28;4327828;81;44459;-80
2020/12/19 06:44:29;;;;;;;52.60;22.00;;;;;;;-1.58;100.00;100117.42;4347565;81;43987;-78
2020/12/19 06:50:59;;;;;;;48.78;20.52;;;;;;;-1.64;100.00;100125.36;4337261;80;44111;-80
2020/12/19 06:57:04;;;;;;;48.90;20.62;;;;;;;-1.65;100.00;100137.34;4367367;80;44081;-78
2020/12/19 07:03:06;;;;;;;52.80;22.35;;;;;;;-1.41;100.00;100139.78;4333979;80;47803;-78
2020/12/19 07:09:28;;;;;;;48.00;19.57;;;;;;;-1.32;100.00;100139.48;4329137;81;43750;-80
2020/12/19 07:15:51;;;;;;;48.58;20.75;;;;;;;-1.42;100.00;100148.16;4339962;81;43729;-78
2020/12/19 07:21:58;;;;;;;47.08;20.43;;;;;;;-1.27;100.00;100145.23;4156850;84;43761;-79
2020/12/19 07:28:00;;;;;;;49.35;20.40;;;;;;;-1.16;100.00;100140.38;4244201;84;44108;-80
2020/12/19 07:34:02;;;;;;;47.40;18.95;;;;;;;-1.35;100.00;100143.70;4250608;83;43788;-80
2020/12/19 07:40:07;;;;;;;48.58;20.68;;;;;;;-0.88;100.00;100145.52;4198357;84;43761;-82
2020/12/19 07:46:09;;;;;;;50.80;21.48;;;;;;;-1.20;100.00;100145.06;4171229;83;28561;-81
2020/12/19 07:52:22;;;;;;;47.43;20.37;;;;;;;-0.85;100.00;100145.72;4194350;83;43812;-77
2020/12/19 07:58:29;;;;;;;54.25;21.77;;;;;;;-0.93;100.00;100142.92;4215429;84;44107;-81
2020/12/19 08:04:35;;;;;;;52.35;22.05;;;;;;;-0.97;100.00;100151.58;4325450;81;43990;-79
2020/12/19 08:10:38;;;;;;;50.12;21.07;;;;;;;-0.92;100.00;100147.23;4274072;81;43593;-79
2020/12/19 08:16:41;;;;;;;45.00;18.37;;;;;;;-0.90;100.00;100140.02;4335450;80;43742;-84
2020/12/19 08:22:44;;;;;;;56.13;21.70;;;;;;;-0.88;100.00;100144.20;4361468;80;44099;-80
2020/12/19 08:29:04;;;;;;;41.48;16.37;;;;;;;-0.56;100.00;100154.31;4334586;81;44439;-82
2020/12/19 08:35:06;;;;;;;39.40;17.37;;;;;;;-0.62;100.00;100158.31;4310586;81;44440;-80
2020/12/19 08:41:19;;;;;;;40.78;17.27;;;;;;;-0.65;100.00;100154.62;4335029;81;43253;-80
2020/12/19 08:47:21;;;;;;;38.67;16.37;;;;;;;-0.62;100.00;100146.42;4326403;81;44458;-80
2020/12/19 08:53:26;;;;;;;40.85;16.60;;;;;;;-0.66;100.00;100143.70;4350285;81;44546;-80
2020/12/19 08:59:29;;;;;;;38.10;16.27;;;;;;;-0.45;100.00;100144.97;4332396;80;44464;-79
2020/12/19 09:05:37;;;;;;;41.18;17.55;;;;;;;-0.43;100.00;100135.60;4327905;80;44460;-81
2020/12/19 09:11:40;;;;;;;44.65;18.40;;;;;;;-0.54;100.00;100135.19;4303671;80;43779;-82
2020/12/19 09:17:47;;;;;;;46.48;18.07;;;;;;;-0.53;100.00;100132.08;4328627;80;43765;-82
2020/12/19 09:23:49;;;;;;;42.50;17.42;;;;;;;-0.41;100.00;100127.05;4346269;80;44555;-80
2020/12/19 09:29:55;;;;;;;35.40;15.25;;;;;;;-0.33;100.00;100114.02;4314846;81;44442;-82
2020/12/19 09:35:57;;;;;;;48.50;19.85;;;;;;;-0.39;100.00;100119.00;4243504;82;43808;-82
2020/12/19 09:41:59;;;;;;;43.68;17.82;;;;;;;-0.39;100.00;100105.79;4159843;84;43703;-81
2020/12/19 09:48:02;;;;;;;41.20;17.87;;;;;;;-0.27;100.00;100105.19;4210249;83;43216;-83
2020/12/19 09:54:04;;;;;;;45.30;19.37;;;;;;;-0.35;100.00;100095.29;4188485;83;43733;-83
2020/12/19 10:00:09;;;;;;;43.98;19.15;;;;;;;-0.31;100.00;100096.72;4183881;83;28580;-81
2020/12/19 10:06:14;;;;;;;43.60;17.80;;;;;;;-0.20;100.00;100087.36;4217747;82;43733;-81
2020/12/19 10:12:27;;;;;;;48.45;19.42;;;;;;;-0.15;100.00;100087.77;4246564;83;43773;-81
2020/12/19 10:18:30;;;;;;;49.50;19.02;;;;;;;-0.07;100.00;100090.23;4233517;83;43589;-81
2020/12/19 10:24:32;;;;;;;48.13;19.15;;;;;;;-0.18;100.00;100093.81;4267369;83;43736;-81
2020/12/19 10:30:34;;;;;;;53.60;21.77;;;;;;;-0.32;100.00;100088.41;4182276;83;44080;-80
2020/12/19 10:36:37;;;;;;;55.83;21.65;;;;;;;-0.26;100.00;100080.42;4198559;84;44112;-83
2020/12/19 10:42:43;;;;;;;62.80;22.70;;;;;;;-0.01;100.00;100075.13;4246247;81;42864;-83
2020/12/19 10:48:45;;;;;;;56.50;21.68;;;;;;;-0.15;100.00;100077.20;4251930;82;44155;-82
2020/12/19 10:54:47;;;;;;;60.85;23.32;;;;;;;0.03;100.00;100067.77;4213339;84;43714;-84
2020/12/19 11:00:50;;;;;;;59.13;22.58;;;;;;;0.12;100.00;100057.69;4314647;82;44085;-83
2020/12/19 11:06:52;;;;;;;59.63;23.02;;;;;;;0.19;100.00;100070.71;4332342;82;44298;-82
2020/12/19 11:12:54;;;;;;;62.70;22.67;;;;;;;0.35;100.00;100064.02;4203946;84;28563;-82
2020/12/19 11:18:58;;;;;;;57.95;22.77;;;;;;;0.41;100.00;100063.48;4300163;82;44117;-82
2020/12/19 11:25:00;;;;;;;66.33;24.18;;;;;;;0.44;100.00;100057.08;4301142;81;28563;-86
2020/12/19 11:31:02;;;;;;;58.63;21.50;;;;;;;0.66;100.00;100058.09;4311190;82;28591;-87
2020/12/19 11:37:05;;;;;;;53.92;20.35;;;;;;;0.61;100.00;100060.32;4308985;80;44119;-86
2020/12/19 11:43:07;;;;;;;62.00;23.90;;;;;;;0.63;100.00;100054.89;4326329;82;28581;-84
2020/12/19 11:49:09;;;;;;;60.65;21.20;;;;;;;0.50;100.00;100052.53;4324744;82;28597;-85
2020/12/19 11:55:12;;;;;;;62.48;23.22;;;;;;;0.68;100.00;100052.17;4308520;80;28604;-84
2020/12/19 12:01:15;;;;;;;55.17;22.00;;;;;;;0.55;100.00;100051.13;4231019;83;28582;-82
2020/12/19 12:07:18;;;;;;;52.38;20.88;;;;;;;0.69;100.00;100047.22;4203227;83;44128;-85
2020/12/19 12:13:20;;;;;;;58.90;21.48;;;;;;;0.73;100.00;100044.28;4222130;82;28550;-83
2020/12/19 12:19:23;;;;;;;51.33;20.23;;;;;;;0.59;100.00;100050.87;4165927;84;43588;-82
2020/12/19 12:25:25;;;;;;;48.83;19.60;;;;;;;0.59;100.00;100044.26;4200404;84;28551;-83
2020/12/19 12:31:29;;;;;;;53.55;22.22;;;;;;;0.55;100.00;100033.11;4199319;84;44118;-83
2020/12/19 12:37:32;;;;;;;58.68;22.60;;;;;;;0.63;100.00;100028.42;4186082;84;28553;-88
2020/12/19 12:43:34;;;;;;;56.33;22.60;;;;;;;0.55;100.00;100020.70;4189913;84;28602;-90
2020/12/19 12:49:37;;;;;;;53.42;21.25;;;;;;;0.60;100.00;100024.75;4172342;84;28569;-89
2020/12/19 12:55:39;;;;;;;48.20;20.70;;;;;;;0.64;100.00;100022.16;4265215;82;28635;-90
2020/12/19 13:01:42;;;;;;;48.00;20.40;;;;;;;0.41;100.00;100014.02;4296520;82;43791;-88
2020/12/19 13:07:46;;;;;;;53.45;21.02;;;;;;;0.41;100.00;100014.02;4256773;82;28585;-89
2020/12/19 13:13:48;;;;;;;49.58;20.62;;;;;;;0.38;100.00;100011.67;4279201;82;44473;-89
2020/12/19 13:19:51;;;;;;;46.28;18.82;;;;;;;0.38;100.00;100014.82;4273188;82;43735;-90
2020/12/19 13:25:53;;;;;;;56.02;21.70;;;;;;;0.48;100.00;100010.83;4283207;82;28644;-89
2020/12/19 13:31:56;;;;;;;46.20;17.48;;;;;;;0.32;100.00;100016.69;4267454;82;28703;-91
2020/12/19 13:37:58;;;;;;;54.75;21.00;;;;;;;0.55;100.00;100016.73;4270593;82;28676;-89
2020/12/19 13:44:01;;;;;;;58.80;22.82;;;;;;;0.31;100.00;100012.38;4269738;82;28589;-87
2020/12/19 13:50:05;;;;;;;55.73;21.48;;;;;;;0.40;100.00;100012.36;4258781;82;28632;-87
2020/12/19 13:56:20;;;;;;;61.80;23.55;;;;;;;0.36;100.00;100017.59;4271859;82;28545;-82
2020/12/19 14:02:31;;;;;;;60.88;23.38;;;;;;;0.32;100.00;100011.40;4258446;82;28545;-85
2020/12/19 14:08:36;;;;;;;60.38;23.52;;;;;;;0.22;100.00;100021.50;4264568;82;44119;-86
2020/12/19 14:14:38;;;;;;;59.60;23.45;;;;;;;0.37;100.00;100020.59;4265699;82;28592;-86
2020/12/19 14:20:42;;;;;;;62.15;22.80;;;;;;;0.45;100.00;100023.03;4273039;82;28659;-86
2020/12/19 14:26:44;;;;;;;57.33;22.75;;;;;;;0.43;100.00;100028.95;4276697;82;44127;-85
2020/12/19 14:32:46;;;;;;;61.18;23.55;;;;;;;0.36;100.00;100017.59;4266592;82;28601;-88
2020/12/19 14:38:49;;;;;;;56.53;21.93;;;;;;;0.29;100.00;100032.34;4253512;82;44087;-85
2020/12/19 14:44:51;;;;;;;53.10;21.93;;;;;;;0.26;100.00;100036.61;4253002;82;28628;-86
2020/12/19 14:50:53;;;;;;;60.80;23.07;;;;;;;0.36;100.00;100033.94;4262065;82;44136;-87
2020/12/19 14:56:57;;;;;;;61.35;24.20;;;;;;;0.19;100.00;100033.69;4197698;84;43717;-86
2020/12/19 15:02:59;;;;;;;54.35;21.55;;;;;;;0.10;100.00;100032.69;4189342;84;44103;-85
2020/12/19 15:09:01;;;;;;;53.00;19.70;;;;;;;0.23;100.00;100043.50;4204827;83;44106;-86
2020/12/19 15:15:04;;;;;;;53.83;20.68;;;;;;;0.46;100.00;100040.06;4207574;84;44106;-86
2020/12/19 15:21:07;;;;;;;47.75;19.92;;;;;;;0.23;100.00;100042.18;4185589;84;28572;-85
2020/12/19 15:27:09;;;;;;;49.42;20.50;;;;;;;0.08;100.00;100044.40;4172039;84;44081;-84
2020/12/19 15:33:11;;;;;;;48.80;19.45;;;;;;;0.12;100.00;100045.31;4188825;84;28578;-85
2020/12/19 15:39:13;;;;;;;51.33;19.92;;;;;;;-0.03;100.00;100047.52;4183593;84;28614;-86
2020/12/19 15:45:16;;;;;;;46.98;18.45;;;;;;;-0.08;100.00;100044.94;4197615;84;44217;-86
2020/12/19 15:51:18;;;;;;;51.92;20.97;;;;;;;0.18;100.00;100043.92;4187111;84;28660;-88
2020/12/19 15:57:20;;;;;;;48.00;19.85;;;;;;;0.23;100.00;100048.80;4192788;84;43807;-86
2020/12/19 16:03:22;;;;;;;44.38;19.02;;;;;;;0.22;100.00;100051.91;4200505;83;43814;-86
2020/12/19 16:09:25;;;;;;;46.77;19.50;;;;;;;0.18;100.00;100035.98;4203616;84;43775;-85
2020/12/19 16:15:27;;;;;;;51.15;20.43;;;;;;;0.20;100.00;100041.97;4189460;83;28565;-83
2020/12/19 16:21:29;;;;;;;46.88;19.17;;;;;;;0.29;100.00;100044.25;4180737;84;43811;-85
2020/12/19 16:27:31;;;;;;;46.85;19.50;;;;;;;0.33;100.00;100040.84;4192167;83;43773;-84
2020/12/19 16:33:33;;;;;;;43.40;18.50;;;;;;;0.20;100.00;100040.64;4209899;84;43749;-85
2020/12/19 16:39:37;;;;;;;44.35;18.17;;;;;;;0.07;100.00;100036.94;4196804;83;43743;-86
2020/12/19 16:45:39;;;;;;;42.60;18.32;;;;;;;0.18;100.00;100033.81;4185205;84;43701;-84
2020/12/19 16:51:41;;;;;;;48.35;19.77;;;;;;;0.17;100.00;100032.15;4177696;84;43797;-83
2020/12/19 16:57:46;;;;;;;47.50;18.85;;;;;;;0.07;100.00;100040.91;4194949;84;43898;-83
2020/12/19 17:03:48;;;;;;;43.13;17.17;;;;;;;0.13;100.00;100040.84;4187860;84;44448;-82
2020/12/19 17:09:51;;;;;;;44.55;17.85;;;;;;;0.20;100.00;100045.94;4186691;84;28550;-83
2020/12/19 17:15:53;;;;;;;40.17;16.42;;;;;;;0.25;100.00;100047.66;4174127;84;44432;-84
2020/12/19 17:22:00;;;;;;;37.93;15.90;;;;;;;-0.15;100.00;100045.98;4180010;84;28627;-83
2020/12/19 17:28:02;;;;;;;38.73;16.23;;;;;;;-0.19;100.00;100044.09;4196839;84;44449;-82
2020/12/19 17:34:05;;;;;;;38.28;16.70;;;;;;;0.01;100.00;100036.66;4195003;84;44430;-82
2020/12/19 17:40:07;;;;;;;41.05;16.97;;;;;;;-0.24;100.00;100058.69;4197317;83;44477;-83
2020/12/19 17:46:09;;;;;;;40.43;17.62;;;;;;;-0.11;100.00;100047.36;4196810;83;44524;-84
2020/12/19 17:52:14;;;;;;;40.85;16.85;;;;;;;0.04;100.00;100049.59;4186162;84;44515;-82
2020/12/19 17:58:16;;;;;;;41.45;18.17;;;;;;;-0.05;100.00;100045.51;4183840;84;44501;-82
2020/12/19 18:04:20;;;;;;;38.33;16.50;;;;;;;-0.17;100.00;100030.71;4186584;84;44494;-81
2020/12/19 18:10:23;;;;;;;38.30;16.57;;;;;;;-0.37;100.00;100035.14;4182494;84;44527;-85
2020/12/19 18:16:26;;;;;;;50.20;20.32;;;;;;;-0.21;100.00;100034.14;4195776;84;44131;-86
2020/12/19 18:22:33;;;;;;;39.08;17.37;;;;;;;-0.20;100.00;100042.42;4191926;84;44494;-84
2020/12/19 18:28:36;;;;;;;43.60;17.90;;;;;;;-0.08;100.00;100044.94;4187707;84;43239;-82
2020/12/19 18:34:38;;;;;;;44.18;17.70;;;;;;;-0.08;100.00;100048.41;4202090;83;43793;-81
2020/12/19 18:40:41;;;;;;;44.73;18.80;;;;;;;-0.38;100.00;100045.36;4176182;84;43726;-83
2020/12/19 18:46:49;;;;;;;41.68;18.27;;;;;;;-0.28;100.00;100050.19;4198806;84;44436;-85
2020/12/19 18:52:51;;;;;;;43.40;17.67;;;;;;;-0.43;100.00;100049.72;4172301;83;43239;-86
2020/12/19 18:58:53;;;;;;;43.87;18.55;;;;;;;-0.21;100.00;100046.51;4216480;83;43753;-85
2020/12/19 19:04:56;;;;;;;40.75;17.15;;;;;;;-0.08;100.00;100043.62;4191385;84;28553;-86
2020/12/19 19:11:01;;;;;;;45.65;17.55;;;;;;;-0.03;100.00;100043.55;4196775;84;43798;-86
2020/12/19 19:17:05;;;;;;;41.50;17.20;;;;;;;0.04;100.00;100041.19;4205512;83;28612;-87
2020/12/19 19:23:09;;;;;;;43.37;17.73;;;;;;;-0.05;100.00;100043.34;4205246;84;28568;-82
2020/12/19 19:29:10;;;;;;;44.15;17.52;;;;;;;-0.07;100.00;100055.36;4192891;84;43642;-85
2020/12/19 19:35:15;;;;;;;41.00;17.85;;;;;;;-0.09;100.00;100060.45;4193101;84;44455;-91
2020/12/19 19:41:19;;;;;;;40.10;16.82;;;;;;;-0.32;100.00;100057.55;4195823;84;44427;-86
2020/12/19 19:47:24;;;;;;;42.53;18.80;;;;;;;-0.17;100.00;100054.03;4192586;84;43670;-86
2020/12/19 19:53:27;;;;;;;37.53;17.03;;;;;;;-0.52;100.00;100065.91;4182454;84;28555;-87
2020/12/19 19:59:29;;;;;;;41.13;17.82;;;;;;;-0.41;100.00;100065.45;4179565;84;44475;-87
2020/12/19 20:05:33;;;;;;;37.88;16.65;;;;;;;-0.36;100.00;100064.08;4170607;84;44467;-86
2020/12/19 20:18:02;;;;;;;36.83;16.90;;;;;;;-0.42;100.00;100059.32;4612246;76;70916;-83
2020/12/19 20:23:59;;;;;;;;;;;;;;;-0.37;100.00;100058.42;4519505;79;28545;-86
2020/12/19 20:30:01;;;;;;;37.17;15.75;;;;;;;-0.45;100.00;100074.95;4496976;78;44456;-86
2020/12/19 20:36:11;;;;;;;35.83;16.32;;;;;;;-0.51;100.00;100076.83;4502959;78;44432;-85
2020/12/19 20:42:16;;;;;;;36.80;16.05;;;;;;;-0.65;100.00;100075.38;4499735;78;44421;-88
2020/12/19 20:48:19;;;;;;;38.20;16.23;;;;;;;-0.55;100.00;100079.86;4502538;78;44475;-84
2020/12/19 20:54:22;;;;;;;39.75;17.20;;;;;;;-0.63;100.00;100073.43;4498475;78;44428;-85
2020/12/19 21:00:27;;;;;;;36.83;16.55;;;;;;;-0.83;100.00;100079.59;4513533;78;28541;-84
2020/12/19 21:06:29;;;;;;;41.28;18.32;;;;;;;-0.85;100.00;100089.80;4471953;78;43672;-85
2020/12/19 21:12:34;;;;;;;45.43;19.25;;;;;;;-0.92;100.00;100091.78;4500478;78;43730;-85
2020/12/19 21:18:38;;;;;;;42.95;17.23;;;;;;;-0.99;100.00;100092.77;4498606;78;42902;-86
2020/12/19 21:24:42;;;;;;;46.95;18.60;;;;;;;-0.95;100.00;100093.34;4501842;78;28597;-82
2020/12/19 21:30:44;;;;;;;45.88;18.42;;;;;;;-0.86;100.00;100097.84;4505816;78;43754;-84
2020/12/19 21:36:47;;;;;;;43.63;18.12;;;;;;;-0.90;100.00;100093.30;4475808;78;43762;-80
2020/12/19 21:42:49;;;;;;;35.70;16.48;;;;;;;-0.81;100.00;100098.77;4495697;78;44420;-82
2020/12/19 21:48:51;;;;;;;39.90;16.70;;;;;;;-0.82;100.00;100099.74;4481315;78;44423;-81
2020/12/19 21:54:54;;;;;;;38.70;15.53;;;;;;;-1.12;100.00;100114.92;4504054;78;44426;-89
2020/12/19 22:00:56;;;;;;;37.35;14.95;;;;;;;-1.04;100.00;100111.66;4471312;79;44429;-85
2020/12/19 22:07:01;;;;;;;27.65;11.73;;;;;;;-0.87;100.00;100117.30;4489231;78;43427;-86
2020/12/19 22:13:04;;;;;;;34.92;14.63;;;;;;;-0.97;100.00;100117.72;4482063;78;28641;-89
2020/12/19 22:19:08;;;;;;;36.40;14.95;;;;;;;-0.97;100.00;100117.72;4465109;78;44503;-89
2020/12/19 22:25:25;;;;;;;36.03;15.53;;;;;;;-1.14;100.00;100118.17;4373493;79;87298;-91
2020/12/19 22:31:28;;;;;;;32.20;13.80;;;;;;;-1.34;100.00;100124.27;4273779;81;44082;-88
2020/12/19 22:37:31;;;;;;;35.30;14.85;;;;;;;-1.05;100.00;100124.47;4312838;81;44252;-87
2020/12/19 22:43:38;;;;;;;39.15;14.85;;;;;;;-1.33;100.00;100124.63;4350297;81;44533;-86
2020/12/19 22:49:41;;;;;;;38.85;15.35;;;;;;;-1.12;100.00;100123.34;4270432;81;44445;-87
2020/12/19 22:55:43;;;;;;;35.05;14.60;;;;;;;-1.13;100.00;100125.63;4295124;83;44437;-86
2020/12/19 23:01:46;;;;;;;35.60;16.12;;;;;;;-1.04;100.00;100123.54;4293758;83;44460;-87
2020/12/19 23:07:54;;;;;;;36.98;15.70;;;;;;;-1.05;100.00;100124.47;4292771;83;44426;-89
2020/12/19 23:13:56;;;;;;;39.05;15.50;;;;;;;-1.11;100.00;100123.69;4314087;81;44438;-88
2020/12/19 23:19:59;;;;;;;39.80;15.93;;;;;;;-1.27;100.00;100135.50;4288310;81;44475;-89
2020/12/19 23:26:01;;;;;;;40.70;16.35;;;;;;;-1.19;100.00;100137.53;4290867;81;44485;-88
2020/12/19 23:32:02;;;;;;;39.33;16.37;;;;;;;-1.10;100.00;100129.78;4282819;81;44479;-88
2020/12/19 23:38:05;;;;;;;48.15;18.25;;;;;;;-1.11;100.00;100142.16;4283544;81;43740;-89
2020/12/19 23:44:07;;;;;;;47.25;20.35;;;;;;;-1.14;100.00;100144.56;4209469;83;43747;-89
2020/12/19 23:50:10;;;;;;;44.95;17.62;;;;;;;-1.31;100.00;100151.72;4271676;82;43758;-89
2020/12/19 23:56:12;;;;;;;42.75;17.55;;;;;;;-1.28;100.00;100141.75;4300895;81;43241;-89
